Time;durP1;ratioP1;P1;durP2;ratioP2;P2;SDS_P1;SDS_P2;PMS_P1;PMS_P2;Temp;Humidity;BMP_temperature;BMP_pressure;BME280_temperature;BME280_humidity;BME280_pressure;Samples;Min_cycle;Max_cycle;Signal;HPM_P1;HPM_P2
2023/04/04 00:00:20;;;;;;;;;;;2.50;69.30;;;;;;5035775;28;19913;-83
2023/04/04 00:02:48;;;;;;;;;;;2.50;68.30;;;;;;5041920;28;20020;-82
2023/04/04 00:05:13;;;;;;;;;;;2.50;68.90;;;;;;5056392;28;20275;-83
2023/04/04 00:07:39;;;;;;;;;;;2.50;68.80;;;;;;5043599;28;19997;-83
2023/04/04 00:10:04;;;;;;;;;;;2.50;68.80;;;;;;5042360;28;19913;-82
2023/04/04 00:12:30;;;;;;;;;;;2.50;69.60;;;;;;5035892;28;19923;-83
2023/04/04 00:14:56;;;;;;;;;;;2.40;69.70;;;;;;5037916;28;20351;-84
2023/04/04 00:17:21;;;;;;;;;;;2.30;69.60;;;;;;5037024;28;20020;-84
2023/04/04 00:19:47;;;;;;;;;;;2.20;70.40;;;;;;5037757;28;19919;-84
2023/04/04 00:22:12;;;;;;;;;;;2.20;71.30;;;;;;5019411;28;19947;-84
2023/04/04 00:24:38;;;;;;;;;;;2.20;71.40;;;;;;5046241;28;19913;-83
2023/04/04 00:27:03;;;;;;;;;;;2.10;71.70;;;;;;5034230;28;19909;-83
2023/04/04 00:29:29;;;;;;;;;;;2.10;72.00;;;;;;5035314;28;19913;-83
2023/04/04 00:31:54;;;;;;;;;;;2.10;70.90;;;;;;5038112;28;19967;-83
2023/04/04 00:34:20;;;;;;;;;;;2.20;70.30;;;;;;5035890;28;20642;-83
2023/04/04 00:36:46;;;;;;;;;;;2.30;70.10;;;;;;5054032;28;19917;-86
2023/04/04 00:39:12;;;;;;;;;;;2.30;70.30;;;;;;5036089;28;19924;-83
2023/04/04 00:41:38;;;;;;;;;;;2.30;69.60;;;;;;5030047;28;19909;-83
2023/04/04 00:44:04;;;;;;;;;;;2.30;69.50;;;;;;5022841;28;19913;-83
2023/04/04 00:46:30;;;;;;;;;;;2.20;69.80;;;;;;5028928;28;19909;-83
2023/04/04 00:48:56;;;;;;;;;;;2.20;70.40;;;;;;5037228;28;19920;-82
2023/04/04 00:51:21;;;;;;;;;;;2.20;71.10;;;;;;5028407;28;19913;-83
2023/04/04 00:53:47;;;;;;;;;;;2.10;71.00;;;;;;5027516;28;19955;-83
2023/04/04 00:56:14;;;;;;;;;;;2.20;71.30;;;;;;5034696;28;20272;-84
2023/04/04 00:58:40;;;;;;;;;;;2.10;70.60;;;;;;5039793;28;19912;-84
2023/04/04 01:01:05;;;;;;;;;;;2.10;72.40;;;;;;5034131;28;19916;-84
2023/04/04 01:03:31;;;;;;;;;;;2.10;72.00;;;;;;5037691;28;19980;-84
2023/04/04 01:05:57;;;;;;;;;;;2.00;72.10;;;;;;5033184;28;20423;-83
2023/04/04 01:08:24;;;;;;;;;;;2.10;72.10;;;;;;5053307;28;19917;-83
2023/04/04 01:10:50;;;;;;;;;;;2.00;72.60;;;;;;5033398;28;19923;-83
2023/04/04 01:13:15;;;;;;;;;;;2.00;73.30;;;;;;5034664;28;19924;-84
2023/04/04 01:15:41;;;;;;;;;;;2.10;73.10;;;;;;5038387;28;19944;-84
2023/04/04 01:18:08;;;;;;;;;;;2.00;72.70;;;;;;5052978;28;19913;-83
2023/04/04 01:20:36;;;;;;;;;;;2.00;71.80;;;;;;5034594;28;20007;-83
2023/04/04 01:23:01;;;;;;;;;;;1.90;72.40;;;;;;5036664;28;19985;-84
2023/04/04 01:25:30;;;;;;;;;;;1.90;72.40;;;;;;5041117;28;19952;-83
2023/04/04 01:27:57;;;;;;;;;;;1.90;73.00;;;;;;5052120;28;19919;-83
2023/04/04 01:30:22;;;;;;;;;;;1.80;73.00;;;;;;5030332;28;19913;-84
2023/04/04 01:32:51;;;;;;;;;;;1.70;73.40;;;;;;5043514;28;19949;-83
2023/04/04 01:35:24;;;;;;;;;;;1.60;73.90;;;;;;5035237;28;19923;-83
2023/04/04 01:38:09;;;;;;;;;;;1.50;73.50;;;;;;5038702;28;19917;-83
2023/04/04 01:40:36;;;;;;;;;;;1.50;74.20;;;;;;5052721;28;19916;-83
2023/04/04 01:43:02;;;;;;;;;;;1.40;74.30;;;;;;5032442;28;20078;-83
2023/04/04 01:45:28;;;;;;;;;;;1.30;74.20;;;;;;5055983;28;20538;-82
2023/04/04 01:47:55;;;;;;;;;;;1.40;74.90;;;;;;5038682;28;19913;-82
2023/04/04 01:50:21;;;;;;;;;;;1.40;74.90;;;;;;5035452;28;19919;-84
2023/04/04 01:52:46;;;;;;;;;;;1.40;75.10;;;;;;5040802;28;19921;-84
2023/04/04 01:55:12;;;;;;;;;;;1.40;74.90;;;;;;5055580;28;19915;-84
2023/04/04 01:57:37;;;;;;;;;;;1.40;74.60;;;;;;5028869;28;19966;-86
2023/04/04 02:00:04;;;;;;;;;;;1.40;74.40;;;;;;5025780;28;19909;-85
2023/04/04 02:02:29;;;;;;;;;;;1.30;74.20;;;;;;5058404;28;19927;-84
2023/04/04 02:04:55;;;;;;;;;;;1.20;75.10;;;;;;5035871;28;19913;-84
2023/04/04 02:07:20;;;;;;;;;;;1.30;75.30;;;;;;5046869;28;19917;-85
2023/04/04 02:09:46;;;;;;;;;;;1.30;74.70;;;;;;5042721;28;19924;-85
2023/04/04 02:12:11;;;;;;;;;;;1.30;74.50;;;;;;5046694;28;19928;-85
2023/04/04 02:14:37;;;;;;;;;;;1.30;74.80;;;;;;5040820;28;19908;-85
2023/04/04 02:17:02;;;;;;;;;;;1.30;74.60;;;;;;5040371;28;20300;-84
2023/04/04 02:19:27;;;;;;;;;;;1.30;74.70;;;;;;5059278;28;19962;-85
2023/04/04 02:21:53;;;;;;;;;;;1.30;75.20;;;;;;5043467;28;19921;-84
2023/04/04 02:24:20;;;;;;;;;;;1.30;75.10;;;;;;5044332;28;19936;-84
2023/04/04 02:26:45;;;;;;;;;;;1.30;74.90;;;;;;5042424;28;19921;-84
2023/04/04 02:29:11;;;;;;;;;;;1.30;75.30;;;;;;5062990;28;19923;-84
2023/04/04 02:31:37;;;;;;;;;;;1.20;74.00;;;;;;5050188;28;19917;-85
2023/04/04 02:34:02;;;;;;;;;;;1.30;74.80;;;;;;5048868;28;19948;-83
2023/04/04 02:36:27;;;;;;;;;;;1.30;74.90;;;;;;5035600;28;19919;-83
2023/04/04 02:38:53;;;;;;;;;;;1.30;74.80;;;;;;5051504;28;19916;-84
2023/04/04 02:41:18;;;;;;;;;;;1.40;74.80;;;;;;5035662;28;19921;-85
2023/04/04 02:43:44;;;;;;;;;;;1.40;75.90;;;;;;5023853;28;19913;-85
2023/04/04 02:46:09;;;;;;;;;;;1.40;75.10;;;;;;5054207;28;19927;-84
2023/04/04 02:48:35;;;;;;;;;;;1.40;74.80;;;;;;5035618;28;20553;-84
2023/04/04 02:51:00;;;;;;;;;;;1.40;75.10;;;;;;5033592;28;19912;-85
2023/04/04 02:53:27;;;;;;;;;;;1.40;75.30;;;;;;5050434;28;19917;-85
2023/04/04 02:55:52;;;;;;;;;;;1.20;74.20;;;;;;5033457;28;19935;-85
2023/04/04 02:58:18;;;;;;;;;;;1.10;75.00;;;;;;5044987;28;20360;-85
2023/04/04 03:00:45;;;;;;;;;;;1.10;75.00;;;;;;5035292;28;19913;-85
2023/04/04 03:03:11;;;;;;;;;;;1.10;75.50;;;;;;5037006;28;19961;-85
2023/04/04 03:05:37;;;;;;;;;;;1.10;76.20;;;;;;5031733;28;19913;-85
2023/04/04 03:08:03;;;;;;;;;;;1.10;75.50;;;;;;5041270;28;19975;-83
2023/04/04 03:10:29;;;;;;;;;;;1.10;75.20;;;;;;5034679;28;20376;-84
2023/04/04 03:12:55;;;;;;;;;;;1.00;74.80;;;;;;5047344;28;19943;-85
2023/04/04 03:15:21;;;;;;;;;;;1.00;75.20;;;;;;5039390;28;19913;-84
2023/04/04 03:17:46;;;;;;;;;;;1.10;75.00;;;;;;5032109;28;19984;-85
2023/04/04 03:20:12;;;;;;;;;;;1.00;75.20;;;;;;5045136;28;19912;-85
2023/04/04 03:22:37;;;;;;;;;;;1.00;75.50;;;;;;5041654;28;19923;-87
2023/04/04 03:25:03;;;;;;;;;;;1.00;74.70;;;;;;5051592;28;19963;-87
2023/04/04 03:27:32;;;;;;;;;;;0.90;74.60;;;;;;5039542;28;19999;-85
2023/04/04 03:29:58;;;;;;;;;;;0.90;75.20;;;;;;5047348;28;19920;-86
2023/04/04 03:32:23;;;;;;;;;;;1.00;75.30;;;;;;5041975;28;19927;-85
2023/04/04 03:34:49;;;;;;;;;;;1.10;75.30;;;;;;5036932;28;19964;-86
2023/04/04 03:37:14;;;;;;;;;;;1.00;75.10;;;;;;5044858;28;19932;-85
2023/04/04 03:39:40;;;;;;;;;;;0.90;75.80;;;;;;5045296;28;19920;-85
2023/04/04 03:42:05;;;;;;;;;;;0.90;76.00;;;;;;5025721;28;19919;-85
2023/04/04 03:44:31;;;;;;;;;;;0.80;75.70;;;;;;5034864;28;20064;-85
2023/04/04 03:46:56;;;;;;;;;;;0.90;75.80;;;;;;5048645;28;19939;-88
2023/04/04 03:49:22;;;;;;;;;;;0.80;75.80;;;;;;5045156;28;19919;-83
2023/04/04 03:51:47;;;;;;;;;;;0.80;76.30;;;;;;5033122;28;19913;-84
2023/04/04 03:54:13;;;;;;;;;;;0.80;77.00;;;;;;5032583;28;19962;-85
2023/04/04 03:56:38;;;;;;;;;;;0.80;75.90;;;;;;5036312;28;19913;-85
2023/04/04 03:59:04;;;;;;;;;;;0.70;75.90;;;;;;5039174;28;19928;-84
2023/04/04 04:01:29;;;;;;;;;;;0.80;76.10;;;;;;5032931;28;19961;-85
2023/04/04 04:03:59;;;;;;;;;;;0.80;76.40;;;;;;5038888;28;20329;-86
2023/04/04 04:06:25;;;;;;;;;;;0.80;76.50;;;;;;5026878;28;20394;-86
2023/04/04 04:08:51;;;;;;;;;;;0.80;77.00;;;;;;5032727;28;19913;-86
2023/04/04 04:11:16;;;;;;;;;;;0.80;77.00;;;;;;5047498;28;19912;-85
2023/04/04 04:13:42;;;;;;;;;;;0.90;76.90;;;;;;5028280;28;19952;-86
2023/04/04 04:16:07;;;;;;;;;;;0.80;76.80;;;;;;5052282;28;20376;-85
2023/04/04 04:18:33;;;;;;;;;;;0.90;77.20;;;;;;5052501;28;19909;-85
2023/04/04 04:21:00;;;;;;;;;;;0.80;76.50;;;;;;5049180;28;19924;-84
2023/04/04 04:23:26;;;;;;;;;;;0.70;76.40;;;;;;5034935;28;20371;-87
2023/04/04 04:25:51;;;;;;;;;;;0.60;76.40;;;;;;5038607;28;19919;-88
2023/04/04 04:28:17;;;;;;;;;;;0.60;76.00;;;;;;5034590;28;19970;-88
2023/04/04 04:30:43;;;;;;;;;;;0.50;76.60;;;;;;5053802;28;19916;-88
2023/04/04 04:33:08;;;;;;;;;;;0.50;76.40;;;;;;5048123;28;19913;-87
2023/04/04 04:35:38;;;;;;;;;;;0.40;76.60;;;;;;5053497;28;19912;-86
2023/04/04 04:38:07;;;;;;;;;;;0.30;76.90;;;;;;5027445;28;20408;-87
2023/04/04 04:40:33;;;;;;;;;;;0.30;77.20;;;;;;5023219;28;19992;-86
2023/04/04 04:42:58;;;;;;;;;;;0.30;77.10;;;;;;5053964;28;20437;-87
2023/04/04 04:45:24;;;;;;;;;;;0.20;77.10;;;;;;5037132;28;19915;-87
2023/04/04 04:47:50;;;;;;;;;;;0.20;77.30;;;;;;5053887;28;20003;-86
2023/04/04 04:50:15;;;;;;;;;;;0.20;77.10;;;;;;5031546;28;20284;-86
2023/04/04 04:52:41;;;;;;;;;;;0.30;77.30;;;;;;5033158;28;19924;-86
2023/04/04 04:55:07;;;;;;;;;;;0.20;77.60;;;;;;5026884;28;19917;-85
2023/04/04 04:57:35;;;;;;;;;;;0.20;77.30;;;;;;5034058;28;19985;-87
2023/04/04 05:00:03;;;;;;;;;;;0.30;77.10;;;;;;5041659;28;19920;-88
2023/04/04 05:02:28;;;;;;;;;;;0.40;77.10;;;;;;5034258;28;19928;-89
2023/04/04 05:04:54;;;;;;;;;;;0.20;77.80;;;;;;5034583;28;20038;-86
2023/04/04 05:07:19;;;;;;;;;;;0.20;77.60;;;;;;5034975;28;20314;-88
2023/04/04 05:09:45;;;;;;;;;;;0.20;77.50;;;;;;5034102;28;19917;-87
2023/04/04 05:12:10;;;;;;;;;;;0.20;77.80;;;;;;5036435;28;20457;-86
2023/04/04 05:14:36;;;;;;;;;;;0.20;77.90;;;;;;5037986;28;19920;-87
2023/04/04 05:17:01;;;;;;;;;;;0.00;77.90;;;;;;5029555;28;19921;-87
2023/04/04 05:19:27;;;;;;;;;;;0.00;78.20;;;;;;5039362;28;19936;-88
2023/04/04 05:21:53;;;;;;;;;;;0.00;78.50;;;;;;5051171;28;19921;-87
2023/04/04 05:24:18;;;;;;;;;;;0.00;78.50;;;;;;5038941;28;20412;-88
2023/04/04 05:26:44;;;;;;;;;;;0.00;78.90;;;;;;5040019;28;19982;-87
2023/04/04 05:29:10;;;;;;;;;;;0.00;79.20;;;;;;5041332;28;20351;-88
2023/04/04 05:31:35;;;;;;;;;;;0.00;78.60;;;;;;5041048;28;19966;-88
2023/04/04 05:34:06;;;;;;;;;;;0.00;79.10;;;;;;5042265;28;20365;-88
2023/04/04 05:36:35;;;;;;;;;;;0.10;79.70;;;;;;5061438;28;19908;-87
2023/04/04 05:39:03;;;;;;;;;;;0.20;79.10;;;;;;5043167;28;20042;-88
2023/04/04 05:41:29;;;;;;;;;;;0.30;78.90;;;;;;5045490;28;19913;-88
2023/04/04 05:43:55;;;;;;;;;;;0.30;78.80;;;;;;5078962;28;19935;-88
2023/04/04 05:46:20;;;;;;;;;;;0.50;78.40;;;;;;5052799;28;19948;-88
2023/04/04 05:48:46;;;;;;;;;;;0.50;78.20;;;;;;5053448;28;19921;-88
2023/04/04 05:51:11;;;;;;;;;;;0.60;78.30;;;;;;5055340;28;19979;-88
2023/04/04 05:53:37;;;;;;;;;;;0.50;78.80;;;;;;5052599;28;19960;-88
2023/04/04 05:56:02;;;;;;;;;;;0.60;78.70;;;;;;5038650;28;20330;-88
2023/04/04 05:58:28;;;;;;;;;;;0.70;78.50;;;;;;5038182;28;19913;-87
2023/04/04 06:00:53;;;;;;;;;;;0.70;78.10;;;;;;5035923;28;19920;-87
2023/04/04 06:03:19;;;;;;;;;;;0.70;77.80;;;;;;5020693;28;19909;-87
2023/04/04 06:05:48;;;;;;;;;;;0.80;77.50;;;;;;5037467;28;19917;-86
2023/04/04 06:08:14;;;;;;;;;;;0.80;77.50;;;;;;5039182;28;20273;-86
2023/04/04 06:10:39;;;;;;;;;;;0.80;77.40;;;;;;5056715;28;19927;-85
2023/04/04 06:13:05;;;;;;;;;;;0.80;77.60;;;;;;5046700;28;20384;-86
2023/04/04 06:15:30;;;;;;;;;;;0.70;77.60;;;;;;5040357;28;19979;-86
2023/04/04 06:17:56;;;;;;;;;;;0.70;77.60;;;;;;5030122;28;19960;-86
2023/04/04 06:20:22;;;;;;;;;;;0.80;77.80;;;;;;5027875;28;19909;-86
2023/04/04 06:22:48;;;;;;;;;;;0.80;77.60;;;;;;5020642;28;19913;-86
2023/04/04 06:25:14;;;;;;;;;;;0.90;77.20;;;;;;5036804;28;19933;-86
2023/04/04 06:27:39;;;;;;;;;;;0.90;77.40;;;;;;5039037;28;19913;-87
2023/04/04 06:30:05;;;;;;;;;;;0.90;77.10;;;;;;5057773;28;19955;-87
2023/04/04 06:32:31;;;;;;;;;;;0.90;77.20;;;;;;5042191;28;20095;-87
2023/04/04 06:34:56;;;;;;;;;;;1.10;77.40;;;;;;5035226;28;19937;-84
2023/04/04 06:37:22;;;;;;;;;;;1.00;76.40;;;;;;5050442;28;19917;-84
2023/04/04 06:39:47;;;;;;;;;;;1.10;76.20;;;;;;5027418;28;19917;-86
2023/04/04 06:42:13;;;;;;;;;;;1.00;76.30;;;;;;5045624;28;19952;-86
2023/04/04 06:44:38;;;;;;;;;;;1.20;76.20;;;;;;5038818;28;19952;-85
2023/04/04 06:47:04;;;;;;;;;;;1.30;76.30;;;;;;5048572;28;19939;-86
2023/04/04 06:49:29;;;;;;;;;;;1.20;76.00;;;;;;5040241;28;19913;-86
2023/04/04 06:51:55;;;;;;;;;;;1.30;76.20;;;;;;5038184;28;19986;-85
2023/04/04 06:54:20;;;;;;;;;;;1.30;76.10;;;;;;5034813;28;19959;-85
2023/04/04 06:56:46;;;;;;;;;;;1.20;76.20;;;;;;5057727;28;19920;-85
2023/04/04 06:59:11;;;;;;;;;;;1.20;76.20;;;;;;5046877;28;19965;-85
2023/04/04 07:01:37;;;;;;;;;;;1.20;76.80;;;;;;5058209;28;19912;-86
2023/04/04 07:04:02;;;;;;;;;;;1.30;77.70;;;;;;5058752;28;19966;-85
2023/04/04 07:06:28;;;;;;;;;;;1.30;77.70;;;;;;5038775;28;19920;-85
2023/04/04 07:08:54;;;;;;;;;;;1.50;78.00;;;;;;5045061;28;19987;-84
2023/04/04 07:11:22;;;;;;;;;;;1.60;77.70;;;;;;5058981;28;19972;-86
2023/04/04 07:13:48;;;;;;;;;;;1.50;77.20;;;;;;5053723;28;19959;-86
2023/04/04 07:16:13;;;;;;;;;;;1.50;77.50;;;;;;5055063;28;19917;-85
2023/04/04 07:18:39;;;;;;;;;;;1.50;77.70;;;;;;5072314;28;19912;-85
2023/04/04 07:21:04;;;;;;;;;;;1.60;78.10;;;;;;5041196;28;19974;-83
2023/04/04 07:23:30;;;;;;;;;;;1.70;77.50;;;;;;5062730;28;19935;-84
2023/04/04 07:25:55;;;;;;;;;;;1.80;77.40;;;;;;5050400;28;19917;-84
2023/04/04 07:28:21;;;;;;;;;;;1.80;76.30;;;;;;5043256;28;19917;-83
2023/04/04 07:30:47;;;;;;;;;;;2.00;76.80;;;;;;5049412;28;19959;-83
2023/04/04 07:33:12;;;;;;;;;;;2.10;75.80;;;;;;5056400;28;19917;-82
2023/04/04 07:35:38;;;;;;;;;;;2.20;75.10;;;;;;5035708;28;20003;-82
2023/04/04 07:38:03;;;;;;;;;;;2.30;74.90;;;;;;5042883;28;19913;-83
2023/04/04 07:40:29;;;;;;;;;;;2.30;74.40;;;;;;5041082;28;20003;-82
2023/04/04 07:42:55;;;;;;;;;;;2.40;73.40;;;;;;5056251;28;20363;-82
2023/04/04 07:45:23;;;;;;;;;;;2.50;74.40;;;;;;5054355;28;20377;-82
2023/04/04 07:47:49;;;;;;;;;;;2.60;74.00;;;;;;5035286;28;19965;-82
2023/04/04 07:50:15;;;;;;;;;;;2.80;73.80;;;;;;5036600;28;19924;-82
2023/04/04 07:52:41;;;;;;;;;;;2.80;71.00;;;;;;5037097;28;19958;-82
2023/04/04 07:55:07;;;;;;;;;;;2.80;71.70;;;;;;5039617;28;19912;-82
2023/04/04 07:57:36;;;;;;;;;;;2.80;69.70;;;;;;5034323;28;19915;-85
2023/04/04 08:00:04;;;;;;;;;;;3.00;70.90;;;;;;5039145;28;19913;-82
2023/04/04 08:02:29;;;;;;;;;;;3.00;69.70;;;;;;5044478;28;20360;-82
2023/04/04 08:04:55;;;;;;;;;;;3.00;69.80;;;;;;5035461;28;19923;-82
2023/04/04 08:07:21;;;;;;;;;;;3.10;69.70;;;;;;5036265;28;19912;-83
2023/04/04 08:09:47;;;;;;;;;;;3.20;67.90;;;;;;5048405;28;19909;-82
2023/04/04 08:12:12;;;;;;;;;;;3.20;66.70;;;;;;5033597;28;20019;-82
2023/04/04 08:14:38;;;;;;;;;;;3.30;67.90;;;;;;5048998;28;20186;-83
2023/04/04 08:17:03;;;;;;;;;;;3.40;66.80;;;;;;5042143;28;19913;-83
2023/04/04 08:19:29;;;;;;;;;;;3.40;66.90;;;;;;5054574;28;19916;-85
2023/04/04 08:21:55;;;;;;;;;;;3.50;64.90;;;;;;5039430;28;20010;-88
2023/04/04 08:24:21;;;;;;;;;;;3.50;63.30;;;;;;5052583;28;19913;-83
2023/04/04 08:26:46;;;;;;;;;;;3.60;62.50;;;;;;5038052;28;19909;-84
2023/04/04 08:29:12;;;;;;;;;;;3.60;61.00;;;;;;5035995;28;19912;-84
2023/04/04 08:31:39;;;;;;;;;;;3.70;61.50;;;;;;5043546;28;19917;-86
2023/04/04 08:34:06;;;;;;;;;;;3.80;58.60;;;;;;5028322;28;20360;-84
2023/04/04 08:36:32;;;;;;;;;;;4.10;60.00;;;;;;5042725;28;19940;-85
2023/04/04 08:38:58;;;;;;;;;;;4.00;58.70;;;;;;5038933;28;20153;-84
2023/04/04 08:41:24;;;;;;;;;;;4.00;59.60;;;;;;5038426;28;20418;-84
2023/04/04 08:43:53;;;;;;;;;;;4.10;59.70;;;;;;5042476;28;20031;-85
2023/04/04 08:46:23;;;;;;;;;;;4.10;57.20;;;;;;5041917;28;19926;-84
2023/04/04 08:48:49;;;;;;;;;;;4.10;57.30;;;;;;5036281;28;20441;-85
2023/04/04 08:51:14;;;;;;;;;;;4.10;58.10;;;;;;5057051;28;19948;-88
2023/04/04 08:53:40;;;;;;;;;;;4.20;59.20;;;;;;5048950;28;20296;-86
2023/04/04 08:56:05;;;;;;;;;;;4.30;55.60;;;;;;5056447;28;20412;-84
2023/04/04 08:58:31;;;;;;;;;;;4.30;57.20;;;;;;5055044;28;19920;-83
2023/04/04 09:00:56;;;;;;;;;;;4.30;55.50;;;;;;5035882;28;19909;-82
2023/04/04 09:03:26;;;;;;;;;;;4.50;57.10;;;;;;5061813;28;19913;-83
2023/04/04 09:05:55;;;;;;;;;;;4.60;53.50;;;;;;5050938;28;19916;-84
2023/04/04 09:08:23;;;;;;;;;;;4.60;54.50;;;;;;5044987;28;19924;-83
2023/04/04 09:10:51;;;;;;;;;;;4.50;55.30;;;;;;5055242;28;19913;-82
2023/04/04 09:13:16;;;;;;;;;;;4.50;54.60;;;;;;5050793;28;20139;-83
2023/04/04 09:15:45;;;;;;;;;;;4.60;54.20;;;;;;5043341;28;19952;-83
2023/04/04 09:18:10;;;;;;;;;;;4.80;55.00;;;;;;5046758;28;19917;-83
2023/04/04 09:20:37;;;;;;;;;;;4.80;54.20;;;;;;5052629;28;20292;-83
2023/04/04 09:23:11;;;;;;;;;;;4.70;53.60;;;;;;5036318;28;19913;-83
2023/04/04 09:25:36;;;;;;;;;;;4.70;53.40;;;;;;5033940;28;20355;-85
2023/04/04 09:28:04;;;;;;;;;;;4.70;54.80;;;;;;5054359;28;19908;-83
2023/04/04 09:30:34;;;;;;;;;;;4.70;54.70;;;;;;5028806;28;19928;-86
2023/04/04 09:33:00;;;;;;;;;;;4.60;53.40;;;;;;5031401;28;19921;-84
2023/04/04 09:35:26;;;;;;;;;;;4.80;56.10;;;;;;5033440;28;19960;-86
2023/04/04 09:37:52;;;;;;;;;;;5.00;56.40;;;;;;5040796;28;19912;-84
2023/04/04 09:40:18;;;;;;;;;;;5.20;53.20;;;;;;5030714;28;20386;-83
2023/04/04 09:42:43;;;;;;;;;;;5.30;54.50;;;;;;5034806;28;19931;-84
2023/04/04 09:45:09;;;;;;;;;;;5.30;53.80;;;;;;5034080;28;19912;-84
2023/04/04 09:47:39;;;;;;;;;;;5.30;56.90;;;;;;5033977;28;20007;-84
2023/04/04 09:50:06;;;;;;;;;;;5.50;55.50;;;;;;5033158;28;19942;-84
2023/04/04 09:52:34;;;;;;;;;;;5.50;52.20;;;;;;5051459;28;19968;-83
2023/04/04 09:55:01;;;;;;;;;;;5.50;54.80;;;;;;5035120;28;19916;-84
2023/04/04 09:57:30;;;;;;;;;;;5.40;54.30;;;;;;5033100;28;19923;-86
2023/04/04 09:59:57;;;;;;;;;;;5.50;54.10;;;;;;5035046;28;19962;-85
2023/04/04 10:02:23;;;;;;;;;;;5.60;51.70;;;;;;5030211;28;19917;-85
2023/04/04 10:04:48;;;;;;;;;;;5.50;53.10;;;;;;5041475;28;19976;-87
2023/04/04 10:07:14;;;;;;;;;;;5.70;54.70;;;;;;5069982;28;20454;-85
2023/04/04 10:09:40;;;;;;;;;;;5.90;54.80;;;;;;5066901;28;19913;-86
2023/04/04 10:12:09;;;;;;;;;;;6.00;52.80;;;;;;5046454;28;19921;-82
2023/04/04 10:14:35;;;;;;;;;;;6.00;53.20;;;;;;5039487;28;19917;-83
2023/04/04 10:17:09;;;;;;;;;;;5.90;51.70;;;;;;5034944;28;19928;-82
2023/04/04 10:19:37;;;;;;;;;;;5.90;52.90;;;;;;5046015;28;19916;-83
2023/04/04 10:22:06;;;;;;;;;;;5.90;50.90;;;;;;5044863;28;19917;-83
2023/04/04 10:24:32;;;;;;;;;;;5.90;53.90;;;;;;5047201;28;19912;-84
2023/04/04 10:26:57;;;;;;;;;;;6.00;52.60;;;;;;5039464;28;20249;-85
2023/04/04 10:29:23;;;;;;;;;;;6.00;52.00;;;;;;5038603;28;19924;-85
2023/04/04 10:31:55;;;;;;;;;;;5.80;51.00;;;;;;5043264;28;19924;-85
2023/04/04 10:34:21;;;;;;;;;;;5.80;52.30;;;;;;5052759;28;19943;-84
2023/04/04 10:36:49;;;;;;;;;;;6.00;51.50;;;;;;5038888;28;19951;-84
2023/04/04 10:39:20;;;;;;;;;;;6.00;51.70;;;;;;5041978;28;19909;-82
2023/04/04 10:41:47;;;;;;;;;;;6.10;53.50;;;;;;5043463;28;19916;-82
2023/04/04 10:44:32;;;;;;;;;;;6.10;53.40;;;;;;5059118;28;19909;-88
2023/04/04 10:47:02;;;;;;;;;;;6.10;53.00;;;;;;5039983;28;19992;-83
2023/04/04 10:49:28;;;;;;;;;;;6.20;54.40;;;;;;5040452;28;19954;-84
2023/04/04 10:51:55;;;;;;;;;;;6.40;52.00;;;;;;5037376;28;19958;-83
2023/04/04 10:54:20;;;;;;;;;;;6.30;53.10;;;;;;5038326;28;19923;-83
2023/04/04 10:56:46;;;;;;;;;;;6.40;50.30;;;;;;5042220;28;19917;-82
2023/04/04 10:59:12;;;;;;;;;;;6.30;52.30;;;;;;5058729;28;19908;-83
2023/04/04 11:01:53;;;;;;;;;;;6.50;51.60;;;;;;5027845;28;20410;-84
2023/04/04 11:04:20;;;;;;;;;;;6.50;51.50;;;;;;5035720;28;19913;-83
2023/04/04 11:07:05;;;;;;;;;;;6.60;52.50;;;;;;5039012;28;20378;-82
2023/04/04 11:09:49;;;;;;;;;;;6.50;52.30;;;;;;5042013;28;19912;-85
2023/04/04 11:12:19;;;;;;;;;;;6.60;49.40;;;;;;5039555;28;19921;-84
2023/04/04 11:15:14;;;;;;;;;;;6.40;50.50;;;;;;5039450;28;19913;-83
2023/04/04 11:17:58;;;;;;;;;;;6.40;52.70;;;;;;5018270;28;19921;-83
2023/04/04 11:20:28;;;;;;;;;;;6.60;53.00;;;;;;5055052;28;19916;-82
2023/04/04 11:23:03;;;;;;;;;;;6.90;50.80;;;;;;5042569;28;19913;-82
2023/04/04 11:25:30;;;;;;;;;;;6.70;48.50;;;;;;5038435;28;20001;-83
2023/04/04 11:27:57;;;;;;;;;;;6.70;50.80;;;;;;5041394;28;19920;-83
2023/04/04 11:30:23;;;;;;;;;;;6.80;49.70;;;;;;5042910;28;19929;-82
2023/04/04 11:32:48;;;;;;;;;;;6.70;51.00;;;;;;5061097;28;19913;-84
2023/04/04 11:35:14;;;;;;;;;;;6.60;50.20;;;;;;5040766;28;19917;-84
2023/04/04 11:37:58;;;;;;;;;;;6.60;48.20;;;;;;5044115;28;19920;-84
2023/04/04 11:40:33;;;;;;;;;;;6.30;49.20;;;;;;5049801;28;20540;-84
2023/04/04 11:43:02;;;;;;;;;;;6.40;50.20;;;;;;5054269;28;19913;-83
2023/04/04 11:45:28;;;;;;;;;;;6.60;49.90;;;;;;5061675;28;19919;-83
2023/04/04 11:47:55;;;;;;;;;;;6.70;51.40;;;;;;5043945;28;19913;-83
2023/04/04 11:50:20;;;;;;;;;;;6.90;51.20;;;;;;5043976;28;19937;-84
2023/04/04 11:52:46;;;;;;;;;;;7.30;51.30;;;;;;5042063;28;19928;-82
2023/04/04 11:55:16;;;;;;;;;;;7.40;51.40;;;;;;5023856;28;19936;-83
2023/04/04 11:57:42;;;;;;;;;;;7.20;48.60;;;;;;5046031;28;19913;-83
2023/04/04 12:00:08;;;;;;;;;;;7.10;47.70;;;;;;5028434;28;19909;-82
2023/04/04 12:02:33;;;;;;;;;;;7.10;50.90;;;;;;5035054;28;19909;-82
2023/04/04 12:04:59;;;;;;;;;;;7.30;49.90;;;;;;5017245;28;19995;-82
2023/04/04 12:07:25;;;;;;;;;;;7.30;49.90;;;;;;5055951;28;19913;-83
2023/04/04 12:09:51;;;;;;;;;;;7.50;46.30;;;;;;5050360;28;19919;-83
2023/04/04 12:12:17;;;;;;;;;;;7.50;46.80;;;;;;5054152;28;19982;-83
2023/04/04 12:14:42;;;;;;;;;;;7.50;47.20;;;;;;5054549;28;19928;-84
2023/04/04 12:17:08;;;;;;;;;;;7.50;46.80;;;;;;5053078;28;20020;-85
2023/04/04 12:19:37;;;;;;;;;;;7.40;45.90;;;;;;5046814;28;19936;-84
2023/04/04 12:22:03;;;;;;;;;;;7.30;48.80;;;;;;5054493;28;20412;-84
2023/04/04 12:24:29;;;;;;;;;;;7.50;48.30;;;;;;5030568;28;19913;-85
2023/04/04 12:26:55;;;;;;;;;;;7.60;50.00;;;;;;5051804;28;20001;-83
2023/04/04 12:29:24;;;;;;;;;;;7.80;48.20;;;;;;5043194;28;20284;-83
2023/04/04 12:31:50;;;;;;;;;;;7.70;48.20;;;;;;5056075;28;20000;-84
2023/04/04 12:34:16;;;;;;;;;;;7.60;47.80;;;;;;5038817;28;19924;-84
2023/04/04 12:36:42;;;;;;;;;;;7.80;46.70;;;;;;5028137;28;19996;-84
2023/04/04 12:39:08;;;;;;;;;;;7.60;48.60;;;;;;5056029;28;20387;-83
2023/04/04 12:41:35;;;;;;;;;;;7.50;45.90;;;;;;5047049;28;19913;-80
2023/04/04 12:44:01;;;;;;;;;;;7.50;45.50;;;;;;5049581;28;19909;-82
2023/04/04 12:46:27;;;;;;;;;;;7.50;48.70;;;;;;5066905;28;19920;-82
2023/04/04 12:48:53;;;;;;;;;;;7.70;48.60;;;;;;5046102;28;19913;-79
2023/04/04 12:51:18;;;;;;;;;;;7.80;48.90;;;;;;5068492;28;19915;-80
2023/04/04 12:53:55;;;;;;;;;;;7.80;47.90;;;;;;5068117;28;19912;-76
2023/04/04 12:56:24;;;;;;;;;;;7.90;46.80;;;;;;5043787;28;19928;-77
2023/04/04 12:58:50;;;;;;;;;;;7.90;50.00;;;;;;5049300;28;19913;-78
2023/04/04 13:01:16;;;;;;;;;;;7.80;46.50;;;;;;5060351;28;19917;-78
2023/04/04 13:03:42;;;;;;;;;;;7.80;47.00;;;;;;5061927;28;19932;-78
2023/04/04 13:06:12;;;;;;;;;;;7.70;47.20;;;;;;5067072;28;19956;-82
2023/04/04 13:08:47;;;;;;;;;;;8.00;44.90;;;;;;5071274;28;19960;-80
2023/04/04 13:11:12;;;;;;;;;;;8.10;47.40;;;;;;5047616;28;19909;-80
2023/04/04 13:13:39;;;;;;;;;;;7.90;47.30;;;;;;5068758;28;19988;-79
2023/04/04 13:16:06;;;;;;;;;;;7.80;44.70;;;;;;5053293;28;19919;-77
2023/04/04 13:18:34;;;;;;;;;;;7.90;45.10;;;;;;5046508;28;19913;-78
2023/04/04 13:21:00;;;;;;;;;;;7.90;45.20;;;;;;5047607;28;19917;-78
2023/04/04 13:23:25;;;;;;;;;;;8.10;45.10;;;;;;5067130;28;19927;-79
2023/04/04 13:25:51;;;;;;;;;;;8.20;46.70;;;;;;5071614;28;19923;-78
2023/04/04 13:28:16;;;;;;;;;;;8.40;46.80;;;;;;5062179;28;19916;-81
2023/04/04 13:30:48;;;;;;;;;;;8.40;47.30;;;;;;5039222;28;19935;-78
2023/04/04 13:33:14;;;;;;;;;;;8.40;46.00;;;;;;5041964;28;19944;-81
2023/04/04 13:35:41;;;;;;;;;;;8.40;47.60;;;;;;5042178;28;19913;-78
2023/04/04 13:38:06;;;;;;;;;;;8.60;45.20;;;;;;5044507;28;19913;-80
2023/04/04 13:40:32;;;;;;;;;;;8.60;45.50;;;;;;5039545;28;19921;-77
2023/04/04 13:42:57;;;;;;;;;;;8.40;45.30;;;;;;5036041;28;19917;-80
2023/04/04 13:45:23;;;;;;;;;;;8.20;48.60;;;;;;5061774;28;19913;-79
2023/04/04 13:47:48;;;;;;;;;;;8.30;48.70;;;;;;5043716;28;19913;-79
2023/04/04 13:50:13;;;;;;;;;;;8.40;47.80;;;;;;5040657;28;19920;-80
2023/04/04 13:52:39;;;;;;;;;;;8.50;47.30;;;;;;5061590;28;19923;-81
2023/04/04 13:55:05;;;;;;;;;;;8.50;45.60;;;;;;5040674;28;19909;-80
2023/04/04 13:57:31;;;;;;;;;;;8.20;44.30;;;;;;5041621;28;19913;-80
2023/04/04 13:59:56;;;;;;;;;;;8.30;48.00;;;;;;5041592;28;19913;-79
2023/04/04 14:02:23;;;;;;;;;;;8.30;45.60;;;;;;5050171;28;19916;-80
2023/04/04 14:04:48;;;;;;;;;;;8.20;46.10;;;;;;5044393;28;19913;-81
2023/04/04 14:07:14;;;;;;;;;;;8.30;45.90;;;;;;5043271;28;19912;-80
2023/04/04 14:09:40;;;;;;;;;;;8.30;44.60;;;;;;5042643;28;19913;-81
2023/04/04 14:12:06;;;;;;;;;;;8.30;45.90;;;;;;5029202;28;20328;-81
2023/04/04 14:14:31;;;;;;;;;;;8.30;45.60;;;;;;5038875;28;19971;-80
2023/04/04 14:16:56;;;;;;;;;;;8.40;43.00;;;;;;5058082;28;19916;-78
2023/04/04 14:19:22;;;;;;;;;;;8.20;42.10;;;;;;5057802;28;19927;-80
2023/04/04 14:21:48;;;;;;;;;;;8.10;43.70;;;;;;5054216;28;19916;-80
2023/04/04 14:24:13;;;;;;;;;;;8.30;43.00;;;;;;5029230;28;19913;-81
2023/04/04 14:26:39;;;;;;;;;;;8.10;44.30;;;;;;5050662;28;20422;-79